sensor_id;sensor_type;location;lat;lon;timestamp;noise_LAeq;noise_LA_min;noise_LA_max;noise_LA01;noise_LA95
77361;Laerm;66427;51.798;10.954;2023-02-07T00:01:06;28.50;27.65;34.18;;
77361;Laerm;66427;51.798;10.954;2023-02-07T00:03:32;28.82;27.67;35.63;;
77361;Laerm;66427;51.798;10.954;2023-02-07T00:06:05;30.94;27.64;40.40;;
77361;Laerm;66427;51.798;10.954;2023-02-07T00:08:31;30.20;27.73;35.25;;
77361;Laerm;66427;51.798;10.954;2023-02-07T00:10:56;28.33;27.72;32.87;;
77361;Laerm;66427;51.798;10.954;2023-02-07T00:13:22;28.41;27.61;38.36;;
77361;Laerm;66427;51.798;10.954;2023-02-07T00:15:53;28.54;27.67;31.80;;
77361;Laerm;66427;51.798;10.954;2023-02-07T00:18:21;29.08;28.06;32.56;;
77361;Laerm;66427;51.798;10.954;2023-02-07T00:23:32;29.41;28.07;35.62;;
77361;Laerm;66427;51.798;10.954;2023-02-07T00:25:58;50.74;28.28;68.08;;
77361;Laerm;66427;51.798;10.954;2023-02-07T00:28:24;33.03;28.10;40.95;;
77361;Laerm;66427;51.798;10.954;2023-02-07T00:31:00;29.91;27.86;36.98;;
77361;Laerm;66427;51.798;10.954;2023-02-07T00:33:30;29.74;27.85;40.32;;
77361;Laerm;66427;51.798;10.954;2023-02-07T00:35:58;29.18;28.03;33.43;;
77361;Laerm;66427;51.798;10.954;2023-02-07T00:38:24;31.00;27.64;41.90;;
77361;Laerm;66427;51.798;10.954;2023-02-07T00:40:54;29.17;27.84;35.30;;
77361;Laerm;66427;51.798;10.954;2023-02-07T00:43:22;28.59;27.68;33.57;;
77361;Laerm;66427;51.798;10.954;2023-02-07T00:45:48;28.62;27.69;32.23;;
77361;Laerm;66427;51.798;10.954;2023-02-07T00:48:14;28.70;27.80;33.32;;
77361;Laerm;66427;51.798;10.954;2023-02-07T00:50:40;30.14;28.58;33.93;;
77361;Laerm;66427;51.798;10.954;2023-02-07T00:53:10;29.22;28.11;31.57;;
77361;Laerm;66427;51.798;10.954;2023-02-07T00:55:38;29.18;27.92;30.66;;
77361;Laerm;66427;51.798;10.954;2023-02-07T00:58:04;30.27;27.66;38.63;;
77361;Laerm;66427;51.798;10.954;2023-02-07T01:00:30;34.76;30.44;40.35;;
77361;Laerm;66427;51.798;10.954;2023-02-07T01:02:56;33.05;27.69;38.81;;
77361;Laerm;66427;51.798;10.954;2023-02-07T01:05:28;28.39;27.43;32.05;;
77361;Laerm;66427;51.798;10.954;2023-02-07T01:07:56;28.31;27.47;30.32;;
77361;Laerm;66427;51.798;10.954;2023-02-07T01:10:22;28.53;27.61;31.42;;
77361;Laerm;66427;51.798;10.954;2023-02-07T01:12:48;29.19;27.81;37.32;;
77361;Laerm;66427;51.798;10.954;2023-02-07T01:15:14;33.11;28.20;41.00;;
77361;Laerm;66427;51.798;10.954;2023-02-07T01:17:40;30.34;28.06;36.83;;
77361;Laerm;66427;51.798;10.954;2023-02-07T01:20:07;29.16;27.43;36.81;;
77361;Laerm;66427;51.798;10.954;2023-02-07T01:22:33;29.96;27.54;36.20;;
77361;Laerm;66427;51.798;10.954;2023-02-07T01:24:58;28.66;27.47;34.94;;
77361;Laerm;66427;51.798;10.954;2023-02-07T01:27:24;28.32;27.53;30.19;;
77361;Laerm;66427;51.798;10.954;2023-02-07T01:29:50;29.13;27.62;34.18;;
77361;Laerm;66427;51.798;10.954;2023-02-07T01:32:21;28.68;27.70;37.25;;
77361;Laerm;66427;51.798;10.954;2023-02-07T01:34:49;28.85;27.53;34.18;;
77361;Laerm;66427;51.798;10.954;2023-02-07T01:37:15;31.37;27.89;41.88;;
77361;Laerm;66427;51.798;10.954;2023-02-07T01:39:46;28.81;27.65;33.59;;
77361;Laerm;66427;51.798;10.954;2023-02-07T01:42:15;29.42;27.56;39.61;;
77361;Laerm;66427;51.798;10.954;2023-02-07T01:47:11;28.62;27.50;34.00;;
77361;Laerm;66427;51.798;10.954;2023-02-07T01:49:42;30.56;27.85;37.43;;
77361;Laerm;66427;51.798;10.954;2023-02-07T01:52:15;29.45;27.49;36.33;;
77361;Laerm;66427;51.798;10.954;2023-02-07T01:54:43;29.98;27.52;40.05;;
77361;Laerm;66427;51.798;10.954;2023-02-07T01:57:11;28.86;27.43;33.44;;
77361;Laerm;66427;51.798;10.954;2023-02-07T01:59:39;28.99;27.76;33.15;;
77361;Laerm;66427;51.798;10.954;2023-02-07T02:02:05;29.91;28.16;33.69;;
77361;Laerm;66427;51.798;10.954;2023-02-07T02:04:36;30.10;28.16;36.72;;
77361;Laerm;66427;51.798;10.954;2023-02-07T02:07:05;30.03;28.37;34.27;;
77361;Laerm;66427;51.798;10.954;2023-02-07T02:09:32;29.63;27.99;36.53;;
77361;Laerm;66427;51.798;10.954;2023-02-07T02:12:07;30.74;28.26;45.94;;
77361;Laerm;66427;51.798;10.954;2023-02-07T02:17:25;29.74;27.99;36.08;;
77361;Laerm;66427;51.798;10.954;2023-02-07T02:27:46;28.88;28.05;32.83;;
77361;Laerm;66427;51.798;10.954;2023-02-07T02:32:57;32.36;28.48;46.77;;
77361;Laerm;66427;51.798;10.954;2023-02-07T02:38:14;31.24;28.40;41.05;;
77361;Laerm;66427;51.798;10.954;2023-02-07T02:40:50;31.45;28.25;39.40;;
77361;Laerm;66427;51.798;10.954;2023-02-07T02:43:27;32.11;28.40;39.11;;
77361;Laerm;66427;51.798;10.954;2023-02-07T02:46:16;29.19;28.17;34.32;;
77361;Laerm;66427;51.798;10.954;2023-02-07T02:48:47;31.59;28.56;40.08;;
77361;Laerm;66427;51.798;10.954;2023-02-07T02:51:16;30.53;28.31;35.64;;
77361;Laerm;66427;51.798;10.954;2023-02-07T02:53:51;33.16;28.71;42.69;;
77361;Laerm;66427;51.798;10.954;2023-02-07T02:56:32;34.66;29.85;45.49;;
77361;Laerm;66427;51.798;10.954;2023-02-07T03:04:16;44.32;28.41;59.93;;
77361;Laerm;66427;51.798;10.954;2023-02-07T03:09:31;32.96;28.05;42.64;;
77361;Laerm;66427;51.798;10.954;2023-02-07T03:12:04;37.46;30.48;50.14;;
77361;Laerm;66427;51.798;10.954;2023-02-07T03:14:42;36.69;30.48;43.40;;
77361;Laerm;66427;51.798;10.954;2023-02-07T03:17:17;36.67;31.99;44.84;;
77361;Laerm;66427;51.798;10.954;2023-02-07T03:19:49;48.35;33.67;62.03;;
77361;Laerm;66427;51.798;10.954;2023-02-07T03:22:20;33.27;29.79;42.64;;
77361;Laerm;66427;51.798;10.954;2023-02-07T03:24:50;32.20;29.83;39.84;;
77361;Laerm;66427;51.798;10.954;2023-02-07T03:27:17;32.49;30.52;37.78;;
77361;Laerm;66427;51.798;10.954;2023-02-07T03:29:45;32.93;30.20;42.78;;
77361;Laerm;66427;51.798;10.954;2023-02-07T03:32:11;37.35;30.63;47.62;;
77361;Laerm;66427;51.798;10.954;2023-02-07T03:37:27;35.47;31.01;42.51;;
77361;Laerm;66427;51.798;10.954;2023-02-07T03:39:56;35.07;32.19;39.62;;
77361;Laerm;66427;51.798;10.954;2023-02-07T03:42:27;35.02;31.82;44.38;;
77361;Laerm;66427;51.798;10.954;2023-02-07T03:44:55;34.95;31.93;40.02;;
77361;Laerm;66427;51.798;10.954;2023-02-07T03:47:23;35.72;32.65;43.00;;
77361;Laerm;66427;51.798;10.954;2023-02-07T03:49:49;49.22;32.83;66.32;;
77361;Laerm;66427;51.798;10.954;2023-02-07T03:52:15;36.28;31.50;48.71;;
77361;Laerm;66427;51.798;10.954;2023-02-07T03:54:41;33.88;31.43;40.08;;
77361;Laerm;66427;51.798;10.954;2023-02-07T03:57:07;35.92;31.72;57.49;;
77361;Laerm;66427;51.798;10.954;2023-02-07T03:59:36;34.07;31.82;36.90;;
77361;Laerm;66427;51.798;10.954;2023-02-07T04:02:03;36.28;32.28;48.53;;
77361;Laerm;66427;51.798;10.954;2023-02-07T04:04:29;42.71;31.35;56.81;;
77361;Laerm;66427;51.798;10.954;2023-02-07T04:06:55;36.36;32.00;57.14;;
77361;Laerm;66427;51.798;10.954;2023-02-07T04:09:21;40.87;32.00;62.17;;
77361;Laerm;66427;51.798;10.954;2023-02-07T04:11:48;34.45;31.22;42.15;;
77361;Laerm;66427;51.798;10.954;2023-02-07T04:14:14;36.44;33.24;42.11;;
77361;Laerm;66427;51.798;10.954;2023-02-07T04:16:39;37.66;31.72;65.02;;
77361;Laerm;66427;51.798;10.954;2023-02-07T04:19:06;40.29;32.90;62.34;;
77361;Laerm;66427;51.798;10.954;2023-02-07T04:21:32;37.53;31.78;52.26;;
77361;Laerm;66427;51.798;10.954;2023-02-07T04:24:02;49.53;34.16;63.77;;
77361;Laerm;66427;51.798;10.954;2023-02-07T04:26:31;36.24;34.62;41.05;;
77361;Laerm;66427;51.798;10.954;2023-02-07T04:28:57;38.38;34.79;48.34;;
77361;Laerm;66427;51.798;10.954;2023-02-07T04:31:23;51.26;33.73;67.56;;
77361;Laerm;66427;51.798;10.954;2023-02-07T04:33:49;45.49;34.70;59.79;;
77361;Laerm;66427;51.798;10.954;2023-02-07T04:36:15;49.69;35.36;63.94;;
77361;Laerm;66427;51.798;10.954;2023-02-07T04:38:41;37.80;34.44;49.25;;
77361;Laerm;66427;51.798;10.954;2023-02-07T04:41:07;51.47;34.33;67.75;;
77361;Laerm;66427;51.798;10.954;2023-02-07T04:43:34;39.22;33.93;49.58;;
77361;Laerm;66427;51.798;10.954;2023-02-07T04:46:00;54.76;35.31;68.00;;
77361;Laerm;66427;51.798;10.954;2023-02-07T04:48:26;45.46;33.92;59.50;;
77361;Laerm;66427;51.798;10.954;2023-02-07T04:50:53;44.01;42.18;56.84;;
77361;Laerm;66427;51.798;10.954;2023-02-07T04:53:19;46.80;34.57;59.43;;
77361;Laerm;66427;51.798;10.954;2023-02-07T04:55:48;36.86;33.48;43.47;;
77361;Laerm;66427;51.798;10.954;2023-02-07T04:58:15;37.44;34.74;46.28;;
77361;Laerm;66427;51.798;10.954;2023-02-07T05:00:41;38.76;35.03;51.74;;
77361;Laerm;66427;51.798;10.954;2023-02-07T05:03:10;48.06;35.19;65.67;;
77361;Laerm;66427;51.798;10.954;2023-02-07T05:05:39;37.52;33.48;55.19;;
77361;Laerm;66427;51.798;10.954;2023-02-07T05:08:05;37.35;34.91;47.14;;
77361;Laerm;66427;51.798;10.954;2023-02-07T05:10:31;37.30;33.74;46.06;;
77361;Laerm;66427;51.798;10.954;2023-02-07T05:12:56;39.09;35.13;47.64;;
77361;Laerm;66427;51.798;10.954;2023-02-07T05:15:22;53.55;35.62;68.53;;
77361;Laerm;66427;51.798;10.954;2023-02-07T05:17:48;40.68;37.69;57.03;;
77361;Laerm;66427;51.798;10.954;2023-02-07T05:20:14;41.76;38.25;55.51;;
77361;Laerm;66427;51.798;10.954;2023-02-07T05:22:40;40.32;36.92;52.57;;
77361;Laerm;66427;51.798;10.954;2023-02-07T05:25:10;42.59;37.22;60.29;;
77361;Laerm;66427;51.798;10.954;2023-02-07T05:27:41;52.95;37.08;69.56;;
77361;Laerm;66427;51.798;10.954;2023-02-07T05:30:09;54.11;38.95;67.70;;
77361;Laerm;66427;51.798;10.954;2023-02-07T05:32:35;55.88;43.93;68.32;;
77361;Laerm;66427;51.798;10.954;2023-02-07T05:35:01;56.26;38.04;71.66;;
77361;Laerm;66427;51.798;10.954;2023-02-07T05:37:27;50.28;37.51;66.21;;
77361;Laerm;66427;51.798;10.954;2023-02-07T05:39:58;50.69;37.52;66.60;;
77361;Laerm;66427;51.798;10.954;2023-02-07T05:42:26;54.04;40.87;68.45;;
77361;Laerm;66427;51.798;10.954;2023-02-07T05:44:52;57.58;41.47;69.29;;
77361;Laerm;66427;51.798;10.954;2023-02-07T05:47:18;55.54;40.88;69.21;;
77361;Laerm;66427;51.798;10.954;2023-02-07T05:49:44;49.74;40.82;60.51;;
77361;Laerm;66427;51.798;10.954;2023-02-07T05:52:13;57.30;49.27;69.51;;
77361;Laerm;66427;51.798;10.954;2023-02-07T05:54:41;60.20;41.77;73.98;;
77361;Laerm;66427;51.798;10.954;2023-02-07T05:57:07;49.68;40.91;63.92;;
77361;Laerm;66427;51.798;10.954;2023-02-07T05:59:34;58.77;41.18;73.87;;
77361;Laerm;66427;51.798;10.954;2023-02-07T06:02:00;53.42;44.51;65.58;;
77361;Laerm;66427;51.798;10.954;2023-02-07T06:04:30;54.18;41.16;72.40;;
77361;Laerm;66427;51.798;10.954;2023-02-07T06:06:58;55.10;39.74;70.04;;
77361;Laerm;66427;51.798;10.954;2023-02-07T06:09:24;55.57;40.88;70.22;;
77361;Laerm;66427;51.798;10.954;2023-02-07T06:11:50;59.77;40.11;71.37;;
77361;Laerm;66427;51.798;10.954;2023-02-07T06:14:16;58.98;40.91;70.58;;
77361;Laerm;66427;51.798;10.954;2023-02-07T06:16:42;42.77;40.51;52.44;;
77361;Laerm;66427;51.798;10.954;2023-02-07T06:19:09;55.05;39.98;68.75;;
77361;Laerm;66427;51.798;10.954;2023-02-07T06:21:34;50.99;39.70;67.79;;
77361;Laerm;66427;51.798;10.954;2023-02-07T06:24:00;52.50;40.84;67.37;;
77361;Laerm;66427;51.798;10.954;2023-02-07T06:26:29;56.93;40.67;68.55;;
77361;Laerm;66427;51.798;10.954;2023-02-07T06:28:57;55.02;47.84;67.71;;
77361;Laerm;66427;51.798;10.954;2023-02-07T06:31:24;54.00;43.02;66.98;;
77361;Laerm;66427;51.798;10.954;2023-02-07T06:33:50;55.78;37.97;68.11;;
77361;Laerm;66427;51.798;10.954;2023-02-07T06:36:16;56.31;38.95;71.97;;
77361;Laerm;66427;51.798;10.954;2023-02-07T06:38:46;56.74;42.05;67.06;;
77361;Laerm;66427;51.798;10.954;2023-02-07T06:41:15;55.25;39.39;68.06;;
77361;Laerm;66427;51.798;10.954;2023-02-07T06:43:41;53.31;38.99;66.81;;
77361;Laerm;66427;51.798;10.954;2023-02-07T06:46:06;52.12;39.58;66.45;;
77361;Laerm;66427;51.798;10.954;2023-02-07T06:48:32;54.66;40.01;70.43;;
77361;Laerm;66427;51.798;10.954;2023-02-07T06:50:58;58.39;40.12;71.57;;
77361;Laerm;66427;51.798;10.954;2023-02-07T06:53:24;50.93;38.80;66.11;;
77361;Laerm;66427;51.798;10.954;2023-02-07T06:55:50;52.05;39.35;66.14;;
77361;Laerm;66427;51.798;10.954;2023-02-07T06:58:23;54.13;39.32;68.38;;
77361;Laerm;66427;51.798;10.954;2023-02-07T07:00:52;54.42;37.67;67.99;;
77361;Laerm;66427;51.798;10.954;2023-02-07T07:03:18;48.86;37.04;64.20;;
77361;Laerm;66427;51.798;10.954;2023-02-07T07:05:47;56.25;36.79;68.13;;
77361;Laerm;66427;51.798;10.954;2023-02-07T07:08:15;57.37;36.77;70.02;;
77361;Laerm;66427;51.798;10.954;2023-02-07T07:10:40;52.83;37.56;66.39;;
77361;Laerm;66427;51.798;10.954;2023-02-07T07:13:11;53.19;37.13;66.08;;
77361;Laerm;66427;51.798;10.954;2023-02-07T07:15:39;48.39;35.97;63.63;;
77361;Laerm;66427;51.798;10.954;2023-02-07T07:18:05;55.64;36.27;71.99;;
77361;Laerm;66427;51.798;10.954;2023-02-07T07:20:32;52.73;37.59;67.82;;
77361;Laerm;66427;51.798;10.954;2023-02-07T07:22:58;55.79;37.02;68.19;;
77361;Laerm;66427;51.798;10.954;2023-02-07T07:25:24;56.38;35.74;69.80;;
77361;Laerm;66427;51.798;10.954;2023-02-07T07:27:50;48.96;36.41;65.14;;
77361;Laerm;66427;51.798;10.954;2023-02-07T07:30:21;42.62;37.09;54.94;;
77361;Laerm;66427;51.798;10.954;2023-02-07T07:32:49;51.94;36.78;67.59;;
77361;Laerm;66427;51.798;10.954;2023-02-07T07:35:14;62.05;37.60;76.41;;
77361;Laerm;66427;51.798;10.954;2023-02-07T07:37:40;47.55;34.99;61.90;;
77361;Laerm;66427;51.798;10.954;2023-02-07T07:40:06;46.02;36.79;60.19;;
77361;Laerm;66427;51.798;10.954;2023-02-07T07:42:32;49.89;35.18;65.20;;
77361;Laerm;66427;51.798;10.954;2023-02-07T07:44:59;51.90;35.22;67.71;;
77361;Laerm;66427;51.798;10.954;2023-02-07T07:47:25;55.41;38.68;66.79;;
77361;Laerm;66427;51.798;10.954;2023-02-07T07:49:56;55.10;36.91;68.36;;
77361;Laerm;66427;51.798;10.954;2023-02-07T07:52:23;61.94;37.87;78.55;;
77361;Laerm;66427;51.798;10.954;2023-02-07T07:54:49;56.55;37.83;71.50;;
77361;Laerm;66427;51.798;10.954;2023-02-07T07:57:15;58.16;36.93;73.17;;
77361;Laerm;66427;51.798;10.954;2023-02-07T07:59:41;51.72;37.91;63.66;;
77361;Laerm;66427;51.798;10.954;2023-02-07T08:02:09;57.36;37.04;72.20;;
77361;Laerm;66427;51.798;10.954;2023-02-07T08:04:34;53.46;35.94;65.99;;
77361;Laerm;66427;51.798;10.954;2023-02-07T08:07:05;53.13;35.10;67.08;;
77361;Laerm;66427;51.798;10.954;2023-02-07T08:09:33;54.49;36.80;67.46;;
77361;Laerm;66427;51.798;10.954;2023-02-07T08:11:59;40.97;36.20;58.13;;
77361;Laerm;66427;51.798;10.954;2023-02-07T08:14:25;56.29;36.65;68.30;;
77361;Laerm;66427;51.798;10.954;2023-02-07T08:16:51;52.19;37.58;64.20;;
77361;Laerm;66427;51.798;10.954;2023-02-07T08:19:16;56.15;36.60;66.82;;
77361;Laerm;66427;51.798;10.954;2023-02-07T08:21:42;55.95;39.17;67.75;;
77361;Laerm;66427;51.798;10.954;2023-02-07T08:24:10;57.91;36.47;74.71;;
77361;Laerm;66427;51.798;10.954;2023-02-07T08:26:36;55.77;37.39;69.19;;
77361;Laerm;66427;51.798;10.954;2023-02-07T08:29:02;53.81;37.73;63.21;;
77361;Laerm;66427;51.798;10.954;2023-02-07T08:31:28;55.11;37.42;64.89;;
77361;Laerm;66427;51.798;10.954;2023-02-07T08:33:53;58.93;38.46;72.38;;
77361;Laerm;66427;51.798;10.954;2023-02-07T08:36:19;48.02;36.39;61.61;;
77361;Laerm;66427;51.798;10.954;2023-02-07T08:38:45;52.17;35.53;66.65;;
77361;Laerm;66427;51.798;10.954;2023-02-07T08:41:11;55.62;37.82;73.00;;
77361;Laerm;66427;51.798;10.954;2023-02-07T08:43:37;57.44;40.00;70.43;;
77361;Laerm;66427;51.798;10.954;2023-02-07T08:46:07;55.75;35.85;70.10;;
77361;Laerm;66427;51.798;10.954;2023-02-07T08:48:35;55.10;36.35;65.82;;
77361;Laerm;66427;51.798;10.954;2023-02-07T08:51:06;51.38;37.56;65.78;;
77361;Laerm;66427;51.798;10.954;2023-02-07T08:53:32;58.75;38.58;69.25;;
77361;Laerm;66427;51.798;10.954;2023-02-07T08:55:58;57.42;39.26;68.41;;
77361;Laerm;66427;51.798;10.954;2023-02-07T08:58:29;51.86;38.48;65.86;;
77361;Laerm;66427;51.798;10.954;2023-02-07T09:00:57;56.68;38.17;67.54;;
77361;Laerm;66427;51.798;10.954;2023-02-07T09:03:23;55.60;38.54;68.88;;
77361;Laerm;66427;51.798;10.954;2023-02-07T09:05:49;63.90;37.93;79.94;;
77361;Laerm;66427;51.798;10.954;2023-02-07T09:08:15;55.48;37.20;70.85;;
77361;Laerm;66427;51.798;10.954;2023-02-07T09:10:41;52.46;38.17;62.59;;
77361;Laerm;66427;51.798;10.954;2023-02-07T09:13:07;56.52;39.19;68.45;;
77361;Laerm;66427;51.798;10.954;2023-02-07T09:15:38;57.62;37.64;68.74;;
77361;Laerm;66427;51.798;10.954;2023-02-07T09:18:06;44.28;35.79;59.16;;
77361;Laerm;66427;51.798;10.954;2023-02-07T09:20:32;53.46;37.94;65.40;;
77361;Laerm;66427;51.798;10.954;2023-02-07T09:22:57;55.68;37.38;66.94;;
77361;Laerm;66427;51.798;10.954;2023-02-07T09:25:23;55.20;37.63;66.44;;
77361;Laerm;66427;51.798;10.954;2023-02-07T09:27:50;57.69;38.72;68.83;;
77361;Laerm;66427;51.798;10.954;2023-02-07T09:30:16;53.97;36.17;66.39;;
77361;Laerm;66427;51.798;10.954;2023-02-07T09:32:46;55.26;38.26;64.96;;
77361;Laerm;66427;51.798;10.954;2023-02-07T09:35:13;61.06;40.20;77.76;;
77361;Laerm;66427;51.798;10.954;2023-02-07T09:37:39;55.59;38.27;70.58;;
77361;Laerm;66427;51.798;10.954;2023-02-07T09:40:05;51.79;36.19;67.25;;
77361;Laerm;66427;51.798;10.954;2023-02-07T09:47:24;51.92;36.56;63.52;;
77361;Laerm;66427;51.798;10.954;2023-02-07T09:49:51;56.66;37.36;71.59;;
77361;Laerm;66427;51.798;10.954;2023-02-07T09:52:19;51.89;37.27;64.41;;
77361;Laerm;66427;51.798;10.954;2023-02-07T09:54:50;56.49;37.45;68.09;;
77361;Laerm;66427;51.798;10.954;2023-02-07T09:57:19;57.39;37.69;67.03;;
77361;Laerm;66427;51.798;10.954;2023-02-07T09:59:53;50.35;33.97;63.92;;
77361;Laerm;66427;51.798;10.954;2023-02-07T10:02:24;50.61;35.71;66.66;;
77361;Laerm;66427;51.798;10.954;2023-02-07T10:04:56;57.80;36.42;69.56;;
77361;Laerm;66427;51.798;10.954;2023-02-07T10:07:26;55.84;36.28;70.52;;
77361;Laerm;66427;51.798;10.954;2023-02-07T10:09:52;48.06;37.15;61.03;;
77361;Laerm;66427;51.798;10.954;2023-02-07T10:12:41;56.69;37.06;69.03;;
77361;Laerm;66427;51.798;10.954;2023-02-07T10:15:14;58.12;37.72;72.29;;
77361;Laerm;66427;51.798;10.954;2023-02-07T10:25:33;58.30;35.97;74.34;;
77361;Laerm;66427;51.798;10.954;2023-02-07T10:30:38;51.21;34.65;67.90;;
77361;Laerm;66427;51.798;10.954;2023-02-07T10:33:15;57.23;35.06;72.14;;
77361;Laerm;66427;51.798;10.954;2023-02-07T10:35:43;57.73;36.54;73.65;;
77361;Laerm;66427;51.798;10.954;2023-02-07T10:38:19;55.15;35.09;70.59;;
77361;Laerm;66427;51.798;10.954;2023-02-07T10:40:52;53.51;36.38;65.52;;
77361;Laerm;66427;51.798;10.954;2023-02-07T10:43:30;51.89;34.81;69.21;;
77361;Laerm;66427;51.798;10.954;2023-02-07T10:45:59;59.35;36.42;72.06;;
77361;Laerm;66427;51.798;10.954;2023-02-07T10:48:26;57.87;37.70;73.72;;
77361;Laerm;66427;51.798;10.954;2023-02-07T10:50:52;56.07;38.79;68.36;;
77361;Laerm;66427;51.798;10.954;2023-02-07T10:56:02;55.01;37.37;66.56;;
77361;Laerm;66427;51.798;10.954;2023-02-07T10:58:36;47.12;37.09;59.77;;
77361;Laerm;66427;51.798;10.954;2023-02-07T11:01:03;54.90;36.89;69.22;;
77361;Laerm;66427;51.798;10.954;2023-02-07T11:03:29;62.66;37.55;79.66;;
77361;Laerm;66427;51.798;10.954;2023-02-07T11:06:01;55.45;35.23;71.11;;
77361;Laerm;66427;51.798;10.954;2023-02-07T11:08:28;52.98;34.73;65.22;;
77361;Laerm;66427;51.798;10.954;2023-02-07T11:10:55;53.72;35.64;68.56;;
77361;Laerm;66427;51.798;10.954;2023-02-07T11:13:23;55.43;38.08;67.41;;
77361;Laerm;66427;51.798;10.954;2023-02-07T11:18:40;51.94;35.27;66.14;;
77361;Laerm;66427;51.798;10.954;2023-02-07T11:21:05;48.61;36.31;62.26;;
77361;Laerm;66427;51.798;10.954;2023-02-07T11:23:35;56.54;39.26;67.51;;
77361;Laerm;66427;51.798;10.954;2023-02-07T11:26:03;56.40;39.48;71.83;;
77361;Laerm;66427;51.798;10.954;2023-02-07T11:28:29;56.85;40.32;67.94;;
77361;Laerm;66427;51.798;10.954;2023-02-07T11:31:05;56.50;37.48;68.42;;
77361;Laerm;66427;51.798;10.954;2023-02-07T11:33:33;58.70;37.28;71.73;;
77361;Laerm;66427;51.798;10.954;2023-02-07T11:36:09;49.35;37.48;64.08;;
77361;Laerm;66427;51.798;10.954;2023-02-07T11:38:36;53.87;38.72;63.71;;
77361;Laerm;66427;51.798;10.954;2023-02-07T11:41:03;53.93;39.29;68.71;;
77361;Laerm;66427;51.798;10.954;2023-02-07T11:43:31;51.20;39.05;67.00;;
77361;Laerm;66427;51.798;10.954;2023-02-07T11:46:04;60.08;39.59;75.15;;
77361;Laerm;66427;51.798;10.954;2023-02-07T11:48:34;55.62;39.03;70.32;;
77361;Laerm;66427;51.798;10.954;2023-02-07T11:51:02;57.24;38.43;68.38;;
77361;Laerm;66427;51.798;10.954;2023-02-07T11:53:36;55.33;38.87;69.21;;
77361;Laerm;66427;51.798;10.954;2023-02-07T11:56:03;52.83;38.08;69.49;;
77361;Laerm;66427;51.798;10.954;2023-02-07T11:58:35;48.23;37.57;62.49;;
77361;Laerm;66427;51.798;10.954;2023-02-07T12:01:03;56.15;38.32;69.96;;
77361;Laerm;66427;51.798;10.954;2023-02-07T12:03:41;52.64;37.91;65.73;;
77361;Laerm;66427;51.798;10.954;2023-02-07T12:06:12;52.54;36.90;67.50;;
77361;Laerm;66427;51.798;10.954;2023-02-07T12:08:39;54.01;38.47;68.35;;
77361;Laerm;66427;51.798;10.954;2023-02-07T12:11:11;56.76;39.97;70.35;;
77361;Laerm;66427;51.798;10.954;2023-02-07T12:13:42;54.28;37.29;68.99;;
77361;Laerm;66427;51.798;10.954;2023-02-07T12:18:37;48.27;35.48;65.34;;
77361;Laerm;66427;51.798;10.954;2023-02-07T12:21:12;55.62;36.35;66.69;;
77361;Laerm;66427;51.798;10.954;2023-02-07T12:24:04;53.39;36.26;69.96;;
77361;Laerm;66427;51.798;10.954;2023-02-07T12:26:32;48.22;34.76;63.20;;
77361;Laerm;66427;51.798;10.954;2023-02-07T12:29:24;52.32;36.54;65.90;;
77361;Laerm;66427;51.798;10.954;2023-02-07T12:32:04;50.14;35.88;63.45;;
77361;Laerm;66427;51.798;10.954;2023-02-07T12:37:18;55.23;37.67;67.11;;
77361;Laerm;66427;51.798;10.954;2023-02-07T12:39:51;51.27;36.43;68.30;;
77361;Laerm;66427;51.798;10.954;2023-02-07T12:42:29;41.58;36.75;52.65;;
77361;Laerm;66427;51.798;10.954;2023-02-07T12:45:03;57.43;36.94;77.93;;
77361;Laerm;66427;51.798;10.954;2023-02-07T12:47:43;58.15;40.09;75.00;;
77361;Laerm;66427;51.798;10.954;2023-02-07T12:58:00;53.26;39.14;65.66;;
77361;Laerm;66427;51.798;10.954;2023-02-07T13:00:45;54.27;39.91;66.87;;
77361;Laerm;66427;51.798;10.954;2023-02-07T13:03:32;56.28;38.56;71.84;;
77361;Laerm;66427;51.798;10.954;2023-02-07T13:06:17;54.30;37.36;74.55;;
77361;Laerm;66427;51.798;10.954;2023-02-07T13:09:10;58.29;37.41;76.32;;
77361;Laerm;66427;51.798;10.954;2023-02-07T13:11:42;49.97;34.65;64.57;;
77361;Laerm;66427;51.798;10.954;2023-02-07T13:19:27;56.63;40.51;65.76;;
77361;Laerm;66427;51.798;10.954;2023-02-07T13:21:57;54.45;38.45;68.89;;
77361;Laerm;66427;51.798;10.954;2023-02-07T13:24:26;55.57;42.29;65.78;;
77361;Laerm;66427;51.798;10.954;2023-02-07T13:26:53;58.66;37.57;86.03;;
77361;Laerm;66427;51.798;10.954;2023-02-07T13:29:20;53.54;36.91;69.25;;
77361;Laerm;66427;51.798;10.954;2023-02-07T13:31:51;55.58;39.66;67.10;;
77361;Laerm;66427;51.798;10.954;2023-02-07T13:34:23;57.28;41.27;73.30;;
77361;Laerm;66427;51.798;10.954;2023-02-07T13:36:51;53.81;40.40;65.85;;
77361;Laerm;66427;51.798;10.954;2023-02-07T13:44:30;54.18;40.55;67.44;;
77361;Laerm;66427;51.798;10.954;2023-02-07T13:47:08;55.06;43.10;67.20;;
77361;Laerm;66427;51.798;10.954;2023-02-07T13:49:43;52.47;39.41;64.93;;
77361;Laerm;66427;51.798;10.954;2023-02-07T13:52:19;53.04;40.08;64.92;;
77361;Laerm;66427;51.798;10.954;2023-02-07T13:54:58;50.98;39.72;67.12;;
77361;Laerm;66427;51.798;10.954;2023-02-07T14:02:39;57.26;42.45;70.06;;
77361;Laerm;66427;51.798;10.954;2023-02-07T14:05:16;57.04;39.72;66.37;;
77361;Laerm;66427;51.798;10.954;2023-02-07T14:07:51;59.81;41.56;72.96;;
77361;Laerm;66427;51.798;10.954;2023-02-07T14:13:05;55.63;39.51;73.65;;
77361;Laerm;66427;51.798;10.954;2023-02-07T14:21:02;61.51;40.18;78.04;;
77361;Laerm;66427;51.798;10.954;2023-02-07T14:31:53;53.65;39.98;65.70;;
77361;Laerm;66427;51.798;10.954;2023-02-07T14:34:20;51.60;38.81;65.66;;
77361;Laerm;66427;51.798;10.954;2023-02-07T14:36:46;62.64;42.12;80.56;;
77361;Laerm;66427;51.798;10.954;2023-02-07T14:41:43;57.64;42.47;67.34;;
77361;Laerm;66427;51.798;10.954;2023-02-07T14:44:28;56.84;39.61;67.93;;
77361;Laerm;66427;51.798;10.954;2023-02-07T14:47:02;56.33;39.78;68.26;;
77361;Laerm;66427;51.798;10.954;2023-02-07T14:49:41;66.48;39.40;89.85;;
77361;Laerm;66427;51.798;10.954;2023-02-07T14:52:10;55.09;39.28;67.68;;
77361;Laerm;66427;51.798;10.954;2023-02-07T14:54:44;55.69;42.33;66.96;;
77361;Laerm;66427;51.798;10.954;2023-02-07T15:05:21;56.04;41.68;69.58;;
77361;Laerm;66427;51.798;10.954;2023-02-07T15:07:48;56.86;43.47;67.49;;
77361;Laerm;66427;51.798;10.954;2023-02-07T15:10:23;57.94;43.36;71.78;;
77361;Laerm;66427;51.798;10.954;2023-02-07T15:12:52;45.37;40.50;52.71;;
77361;Laerm;66427;51.798;10.954;2023-02-07T15:15:28;56.35;42.07;66.38;;
77361;Laerm;66427;51.798;10.954;2023-02-07T15:17:57;52.25;41.58;68.02;;
77361;Laerm;66427;51.798;10.954;2023-02-07T15:20:28;60.20;44.07;75.82;;
77361;Laerm;66427;51.798;10.954;2023-02-07T15:22:58;55.11;43.37;66.41;;
77361;Laerm;66427;51.798;10.954;2023-02-07T15:25:26;54.97;41.83;65.39;;
77361;Laerm;66427;51.798;10.954;2023-02-07T15:28:02;56.81;40.36;69.07;;
77361;Laerm;66427;51.798;10.954;2023-02-07T15:30:31;54.34;41.84;69.15;;